sensor_id;sensor_type;location;lat;lon;timestamp;P1;durP1;ratioP1;P2;durP2;ratioP2
13171;SDS011;6651;53.200;10.432;2023-02-28T00:00:11;7.05;;;4.50;;
13171;SDS011;6651;53.200;10.432;2023-02-28T00:02:38;5.80;;;3.80;;
13171;SDS011;6651;53.200;10.432;2023-02-28T00:05:05;6.10;;;4.60;;
13171;SDS011;6651;53.200;10.432;2023-02-28T00:07:31;7.47;;;4.68;;
13171;SDS011;6651;53.200;10.432;2023-02-28T00:09:57;6.70;;;4.75;;
13171;SDS011;6651;53.200;10.432;2023-02-28T00:12:24;7.55;;;4.90;;
13171;SDS011;6651;53.200;10.432;2023-02-28T00:14:50;8.45;;;4.97;;
13171;SDS011;6651;53.200;10.432;2023-02-28T00:17:16;7.07;;;4.13;;
13171;SDS011;6651;53.200;10.432;2023-02-28T00:19:49;7.65;;;4.20;;
13171;SDS011;6651;53.200;10.432;2023-02-28T00:22:16;5.03;;;3.50;;
13171;SDS011;6651;53.200;10.432;2023-02-28T00:24:42;5.70;;;3.53;;
13171;SDS011;6651;53.200;10.432;2023-02-28T00:27:08;6.25;;;3.40;;
13171;SDS011;6651;53.200;10.432;2023-02-28T00:29:34;5.13;;;3.17;;
13171;SDS011;6651;53.200;10.432;2023-02-28T00:32:00;4.93;;;3.20;;
13171;SDS011;6651;53.200;10.432;2023-02-28T00:34:26;6.13;;;3.58;;
13171;SDS011;6651;53.200;10.432;2023-02-28T00:36:52;5.47;;;3.50;;
13171;SDS011;6651;53.200;10.432;2023-02-28T00:39:18;5.60;;;3.80;;
13171;SDS011;6651;53.200;10.432;2023-02-28T00:41:44;5.28;;;3.25;;
13171;SDS011;6651;53.200;10.432;2023-02-28T00:44:10;5.28;;;3.47;;
13171;SDS011;6651;53.200;10.432;2023-02-28T00:46:37;5.88;;;3.47;;
13171;SDS011;6651;53.200;10.432;2023-02-28T00:49:03;4.72;;;3.25;;
13171;SDS011;6651;53.200;10.432;2023-02-28T00:51:29;4.10;;;3.08;;
13171;SDS011;6651;53.200;10.432;2023-02-28T00:53:55;4.20;;;2.90;;
13171;SDS011;6651;53.200;10.432;2023-02-28T00:56:21;5.03;;;3.08;;
13171;SDS011;6651;53.200;10.432;2023-02-28T00:58:47;4.80;;;3.00;;
13171;SDS011;6651;53.200;10.432;2023-02-28T01:01:13;4.75;;;3.03;;
13171;SDS011;6651;53.200;10.432;2023-02-28T01:03:39;4.32;;;2.63;;
13171;SDS011;6651;53.200;10.432;2023-02-28T01:06:05;3.83;;;2.72;;
13171;SDS011;6651;53.200;10.432;2023-02-28T01:08:31;2.70;;;2.33;;
13171;SDS011;6651;53.200;10.432;2023-02-28T01:10:57;4.32;;;2.88;;
13171;SDS011;6651;53.200;10.432;2023-02-28T01:13:23;4.38;;;2.63;;
13171;SDS011;6651;53.200;10.432;2023-02-28T01:15:51;4.80;;;2.85;;
13171;SDS011;6651;53.200;10.432;2023-02-28T01:18:17;4.38;;;3.10;;
13171;SDS011;6651;53.200;10.432;2023-02-28T01:20:43;4.97;;;3.33;;
13171;SDS011;6651;53.200;10.432;2023-02-28T01:23:11;5.03;;;3.75;;
13171;SDS011;6651;53.200;10.432;2023-02-28T01:25:37;5.63;;;3.60;;
13171;SDS011;6651;53.200;10.432;2023-02-28T01:28:03;5.72;;;3.60;;
13171;SDS011;6651;53.200;10.432;2023-02-28T01:30:29;4.45;;;2.95;;
13171;SDS011;6651;53.200;10.432;2023-02-28T01:32:55;4.85;;;2.92;;
13171;SDS011;6651;53.200;10.432;2023-02-28T01:35:21;5.03;;;2.67;;
13171;SDS011;6651;53.200;10.432;2023-02-28T01:37:47;5.70;;;2.53;;
13171;SDS011;6651;53.200;10.432;2023-02-28T01:40:13;5.07;;;2.80;;
13171;SDS011;6651;53.200;10.432;2023-02-28T01:42:39;3.45;;;2.30;;
13171;SDS011;6651;53.200;10.432;2023-02-28T01:47:47;4.97;;;2.70;;
13171;SDS011;6651;53.200;10.432;2023-02-28T01:50:15;3.85;;;2.72;;
13171;SDS011;6651;53.200;10.432;2023-02-28T01:52:42;4.28;;;2.70;;
13171;SDS011;6651;53.200;10.432;2023-02-28T01:55:08;3.72;;;2.67;;
13171;SDS011;6651;53.200;10.432;2023-02-28T01:57:38;4.30;;;2.50;;
13171;SDS011;6651;53.200;10.432;2023-02-28T02:00:10;4.20;;;2.70;;
13171;SDS011;6651;53.200;10.432;2023-02-28T02:02:39;4.03;;;2.55;;
13171;SDS011;6651;53.200;10.432;2023-02-28T02:05:08;3.90;;;3.10;;
13171;SDS011;6651;53.200;10.432;2023-02-28T02:07:41;3.63;;;2.20;;
13171;SDS011;6651;53.200;10.432;2023-02-28T02:10:11;2.75;;;2.47;;
13171;SDS011;6651;53.200;10.432;2023-02-28T02:15:16;2.90;;;2.30;;
13171;SDS011;6651;53.200;10.432;2023-02-28T02:17:44;4.72;;;3.00;;
13171;SDS011;6651;53.200;10.432;2023-02-28T02:37:37;4.63;;;2.90;;
13171;SDS011;6651;53.200;10.432;2023-02-28T02:40:16;5.43;;;3.20;;
13171;SDS011;6651;53.200;10.432;2023-02-28T02:47:52;4.68;;;3.03;;
13171;SDS011;6651;53.200;10.432;2023-02-28T02:50:24;5.15;;;3.00;;
13171;SDS011;6651;53.200;10.432;2023-02-28T02:52:52;4.55;;;3.05;;
13171;SDS011;6651;53.200;10.432;2023-02-28T02:55:19;3.67;;;3.13;;
13171;SDS011;6651;53.200;10.432;2023-02-28T03:00:12;7.40;;;3.25;;
13171;SDS011;6651;53.200;10.432;2023-02-28T03:02:38;4.85;;;3.10;;
13171;SDS011;6651;53.200;10.432;2023-02-28T03:05:07;5.47;;;3.35;;
13171;SDS011;6651;53.200;10.432;2023-02-28T03:07:34;6.38;;;3.30;;
13171;SDS011;6651;53.200;10.432;2023-02-28T03:10:00;5.30;;;3.47;;
13171;SDS011;6651;53.200;10.432;2023-02-28T03:12:34;5.13;;;3.38;;
13171;SDS011;6651;53.200;10.432;2023-02-28T03:15:07;4.15;;;3.38;;
13171;SDS011;6651;53.200;10.432;2023-02-28T03:20:21;6.45;;;3.30;;
13171;SDS011;6651;53.200;10.432;2023-02-28T03:28:03;4.60;;;3.13;;
13171;SDS011;6651;53.200;10.432;2023-02-28T03:33:08;5.97;;;3.55;;
13171;SDS011;6651;53.200;10.432;2023-02-28T03:35:39;5.00;;;3.42;;
13171;SDS011;6651;53.200;10.432;2023-02-28T03:38:16;4.45;;;3.20;;
13171;SDS011;6651;53.200;10.432;2023-02-28T03:40:46;5.28;;;3.20;;
13171;SDS011;6651;53.200;10.432;2023-02-28T03:43:15;4.97;;;3.05;;
13171;SDS011;6651;53.200;10.432;2023-02-28T03:45:43;4.60;;;3.17;;
13171;SDS011;6651;53.200;10.432;2023-02-28T03:48:13;5.10;;;3.50;;
13171;SDS011;6651;53.200;10.432;2023-02-28T03:50:41;5.13;;;3.15;;
13171;SDS011;6651;53.200;10.432;2023-02-28T03:56:17;4.85;;;3.20;;
13171;SDS011;6651;53.200;10.432;2023-02-28T04:01:09;5.10;;;2.88;;
13171;SDS011;6651;53.200;10.432;2023-02-28T04:03:38;4.68;;;3.03;;
13171;SDS011;6651;53.200;10.432;2023-02-28T04:06:06;6.30;;;3.30;;
13171;SDS011;6651;53.200;10.432;2023-02-28T04:08:32;6.60;;;3.55;;
13171;SDS011;6651;53.200;10.432;2023-02-28T04:11:07;7.88;;;3.78;;
13171;SDS011;6651;53.200;10.432;2023-02-28T04:13:34;6.15;;;3.50;;
13171;SDS011;6651;53.200;10.432;2023-02-28T04:16:00;5.35;;;3.70;;
13171;SDS011;6651;53.200;10.432;2023-02-28T04:18:26;6.78;;;4.05;;
13171;SDS011;6651;53.200;10.432;2023-02-28T04:20:52;5.20;;;3.58;;
13171;SDS011;6651;53.200;10.432;2023-02-28T04:23:18;7.82;;;3.45;;
13171;SDS011;6651;53.200;10.432;2023-02-28T04:25:44;5.50;;;3.50;;
13171;SDS011;6651;53.200;10.432;2023-02-28T04:28:10;4.72;;;3.50;;
13171;SDS011;6651;53.200;10.432;2023-02-28T04:30:37;5.75;;;3.30;;
13171;SDS011;6651;53.200;10.432;2023-02-28T04:33:04;6.60;;;3.50;;
13171;SDS011;6651;53.200;10.432;2023-02-28T04:35:30;5.50;;;3.58;;
13171;SDS011;6651;53.200;10.432;2023-02-28T04:37:56;4.70;;;3.15;;
13171;SDS011;6651;53.200;10.432;2023-02-28T04:40:22;6.80;;;3.47;;
13171;SDS011;6651;53.200;10.432;2023-02-28T04:42:48;4.70;;;3.22;;
13171;SDS011;6651;53.200;10.432;2023-02-28T04:45:14;4.65;;;3.05;;
13171;SDS011;6651;53.200;10.432;2023-02-28T04:47:39;6.43;;;3.38;;
13171;SDS011;6651;53.200;10.432;2023-02-28T04:50:06;5.53;;;3.47;;
13171;SDS011;6651;53.200;10.432;2023-02-28T04:52:32;5.65;;;3.40;;
13171;SDS011;6651;53.200;10.432;2023-02-28T04:54:58;5.40;;;3.35;;
13171;SDS011;6651;53.200;10.432;2023-02-28T04:57:24;5.15;;;3.13;;
13171;SDS011;6651;53.200;10.432;2023-02-28T04:59:50;4.53;;;3.33;;
13171;SDS011;6651;53.200;10.432;2023-02-28T05:02:16;6.85;;;3.50;;
13171;SDS011;6651;53.200;10.432;2023-02-28T05:04:42;4.35;;;3.20;;
13171;SDS011;6651;53.200;10.432;2023-02-28T05:07:08;3.90;;;2.90;;
13171;SDS011;6651;53.200;10.432;2023-02-28T05:09:34;4.40;;;3.25;;
13171;SDS011;6651;53.200;10.432;2023-02-28T05:12:00;5.15;;;3.28;;
13171;SDS011;6651;53.200;10.432;2023-02-28T05:14:26;4.70;;;3.25;;
13171;SDS011;6651;53.200;10.432;2023-02-28T05:16:52;5.20;;;3.20;;
13171;SDS011;6651;53.200;10.432;2023-02-28T05:19:18;5.68;;;3.28;;
13171;SDS011;6651;53.200;10.432;2023-02-28T05:21:50;5.38;;;3.17;;
13171;SDS011;6651;53.200;10.432;2023-02-28T05:24:16;6.75;;;3.58;;
13171;SDS011;6651;53.200;10.432;2023-02-28T05:26:48;6.00;;;3.30;;
13171;SDS011;6651;53.200;10.432;2023-02-28T05:29:14;4.72;;;3.20;;
13171;SDS011;6651;53.200;10.432;2023-02-28T05:31:40;4.78;;;3.13;;
13171;SDS011;6651;53.200;10.432;2023-02-28T05:34:06;4.72;;;3.47;;
13171;SDS011;6651;53.200;10.432;2023-02-28T05:36:33;5.85;;;3.47;;
13171;SDS011;6651;53.200;10.432;2023-02-28T05:38:59;6.78;;;3.30;;
13171;SDS011;6651;53.200;10.432;2023-02-28T05:41:25;4.60;;;3.40;;
13171;SDS011;6651;53.200;10.432;2023-02-28T05:43:51;6.03;;;3.50;;
13171;SDS011;6651;53.200;10.432;2023-02-28T05:46:17;4.95;;;3.30;;
13171;SDS011;6651;53.200;10.432;2023-02-28T05:48:45;5.07;;;3.35;;
13171;SDS011;6651;53.200;10.432;2023-02-28T05:51:11;4.40;;;2.92;;
13171;SDS011;6651;53.200;10.432;2023-02-28T05:53:37;4.95;;;3.30;;
13171;SDS011;6651;53.200;10.432;2023-02-28T05:56:04;5.03;;;3.25;;
13171;SDS011;6651;53.200;10.432;2023-02-28T05:58:30;6.95;;;3.03;;
13171;SDS011;6651;53.200;10.432;2023-02-28T06:00:56;4.55;;;2.70;;
13171;SDS011;6651;53.200;10.432;2023-02-28T06:03:23;5.15;;;3.17;;
13171;SDS011;6651;53.200;10.432;2023-02-28T06:05:49;5.20;;;3.10;;
13171;SDS011;6651;53.200;10.432;2023-02-28T06:08:15;5.20;;;3.20;;
13171;SDS011;6651;53.200;10.432;2023-02-28T06:10:41;6.57;;;3.42;;
13171;SDS011;6651;53.200;10.432;2023-02-28T06:13:07;5.65;;;3.20;;
13171;SDS011;6651;53.200;10.432;2023-02-28T06:15:33;5.10;;;3.30;;
13171;SDS011;6651;53.200;10.432;2023-02-28T06:18:00;4.93;;;3.30;;
13171;SDS011;6651;53.200;10.432;2023-02-28T06:20:26;6.00;;;3.45;;
13171;SDS011;6651;53.200;10.432;2023-02-28T06:22:54;5.25;;;3.15;;
13171;SDS011;6651;53.200;10.432;2023-02-28T06:25:21;5.43;;;3.10;;
13171;SDS011;6651;53.200;10.432;2023-02-28T06:27:47;4.70;;;3.40;;
13171;SDS011;6651;53.200;10.432;2023-02-28T06:30:14;4.95;;;3.00;;
13171;SDS011;6651;53.200;10.432;2023-02-28T06:32:40;3.90;;;2.95;;
13171;SDS011;6651;53.200;10.432;2023-02-28T06:35:06;5.43;;;3.17;;
13171;SDS011;6651;53.200;10.432;2023-02-28T06:37:32;4.93;;;3.28;;
13171;SDS011;6651;53.200;10.432;2023-02-28T06:39:58;5.60;;;3.33;;
13171;SDS011;6651;53.200;10.432;2023-02-28T06:42:24;5.88;;;3.17;;
13171;SDS011;6651;53.200;10.432;2023-02-28T06:44:56;5.38;;;3.80;;
13171;SDS011;6651;53.200;10.432;2023-02-28T06:47:23;7.38;;;4.43;;
13171;SDS011;6651;53.200;10.432;2023-02-28T06:49:49;5.20;;;3.45;;
13171;SDS011;6651;53.200;10.432;2023-02-28T06:52:15;7.40;;;4.10;;
13171;SDS011;6651;53.200;10.432;2023-02-28T06:54:41;9.70;;;6.00;;
13171;SDS011;6651;53.200;10.432;2023-02-28T06:57:07;17.42;;;10.05;;
13171;SDS011;6651;53.200;10.432;2023-02-28T06:59:33;12.00;;;7.70;;
13171;SDS011;6651;53.200;10.432;2023-02-28T07:02:00;9.15;;;5.70;;
13171;SDS011;6651;53.200;10.432;2023-02-28T07:04:27;9.02;;;4.90;;
13171;SDS011;6651;53.200;10.432;2023-02-28T07:06:54;7.53;;;4.22;;
13171;SDS011;6651;53.200;10.432;2023-02-28T07:09:21;6.53;;;4.10;;
13171;SDS011;6651;53.200;10.432;2023-02-28T07:11:47;7.10;;;4.18;;
13171;SDS011;6651;53.200;10.432;2023-02-28T07:14:13;5.28;;;4.18;;
13171;SDS011;6651;53.200;10.432;2023-02-28T07:16:39;5.60;;;3.92;;
13171;SDS011;6651;53.200;10.432;2023-02-28T07:19:05;5.75;;;3.60;;
13171;SDS011;6651;53.200;10.432;2023-02-28T07:21:31;6.45;;;3.90;;
13171;SDS011;6651;53.200;10.432;2023-02-28T07:23:57;7.28;;;3.80;;
13171;SDS011;6651;53.200;10.432;2023-02-28T07:26:23;4.97;;;3.88;;
13171;SDS011;6651;53.200;10.432;2023-02-28T07:28:49;5.63;;;3.75;;
13171;SDS011;6651;53.200;10.432;2023-02-28T07:31:16;7.88;;;4.32;;
13171;SDS011;6651;53.200;10.432;2023-02-28T07:33:43;6.22;;;3.95;;
13171;SDS011;6651;53.200;10.432;2023-02-28T07:36:10;7.68;;;4.18;;
13171;SDS011;6651;53.200;10.432;2023-02-28T07:38:40;7.70;;;3.88;;
13171;SDS011;6651;53.200;10.432;2023-02-28T07:41:06;7.50;;;4.03;;
13171;SDS011;6651;53.200;10.432;2023-02-28T07:43:33;6.82;;;3.75;;
13171;SDS011;6651;53.200;10.432;2023-02-28T07:46:04;4.88;;;3.70;;
13171;SDS011;6651;53.200;10.432;2023-02-28T07:48:30;7.68;;;4.28;;
13171;SDS011;6651;53.200;10.432;2023-02-28T07:50:56;7.00;;;4.00;;
13171;SDS011;6651;53.200;10.432;2023-02-28T07:53:23;8.18;;;4.05;;
13171;SDS011;6651;53.200;10.432;2023-02-28T07:55:49;5.63;;;3.83;;
13171;SDS011;6651;53.200;10.432;2023-02-28T07:58:15;6.88;;;4.00;;
13171;SDS011;6651;53.200;10.432;2023-02-28T08:00:41;5.97;;;3.80;;
13171;SDS011;6651;53.200;10.432;2023-02-28T08:03:08;5.72;;;3.70;;
13171;SDS011;6651;53.200;10.432;2023-02-28T08:05:37;8.68;;;3.97;;
13171;SDS011;6651;53.200;10.432;2023-02-28T08:08:03;6.97;;;3.80;;
13171;SDS011;6651;53.200;10.432;2023-02-28T08:10:29;5.57;;;4.05;;
13171;SDS011;6651;53.200;10.432;2023-02-28T08:12:55;6.75;;;4.10;;
13171;SDS011;6651;53.200;10.432;2023-02-28T08:15:21;6.15;;;4.05;;
13171;SDS011;6651;53.200;10.432;2023-02-28T08:17:47;4.93;;;3.50;;
13171;SDS011;6651;53.200;10.432;2023-02-28T08:20:13;6.05;;;3.70;;
13171;SDS011;6651;53.200;10.432;2023-02-28T08:22:39;5.30;;;3.50;;
13171;SDS011;6651;53.200;10.432;2023-02-28T08:25:07;5.57;;;3.35;;
13171;SDS011;6651;53.200;10.432;2023-02-28T08:27:33;5.35;;;3.40;;
13171;SDS011;6651;53.200;10.432;2023-02-28T08:29:59;5.10;;;3.55;;
13171;SDS011;6651;53.200;10.432;2023-02-28T08:32:25;6.95;;;3.58;;
13171;SDS011;6651;53.200;10.432;2023-02-28T08:34:51;6.07;;;3.50;;
13171;SDS011;6651;53.200;10.432;2023-02-28T08:37:17;4.18;;;3.15;;
13171;SDS011;6651;53.200;10.432;2023-02-28T08:39:43;5.30;;;3.63;;
13171;SDS011;6651;53.200;10.432;2023-02-28T08:42:09;4.45;;;3.25;;
13171;SDS011;6651;53.200;10.432;2023-02-28T08:44:35;4.97;;;3.60;;
13171;SDS011;6651;53.200;10.432;2023-02-28T08:47:01;5.50;;;3.50;;
13171;SDS011;6651;53.200;10.432;2023-02-28T08:49:27;4.28;;;3.10;;
13171;SDS011;6651;53.200;10.432;2023-02-28T08:51:53;4.45;;;3.13;;
13171;SDS011;6651;53.200;10.432;2023-02-28T08:54:22;4.05;;;3.10;;
13171;SDS011;6651;53.200;10.432;2023-02-28T08:56:48;5.25;;;3.30;;
13171;SDS011;6651;53.200;10.432;2023-02-28T08:59:14;4.60;;;3.22;;
13171;SDS011;6651;53.200;10.432;2023-02-28T09:01:40;4.65;;;3.40;;
13171;SDS011;6651;53.200;10.432;2023-02-28T09:04:08;5.22;;;3.40;;
13171;SDS011;6651;53.200;10.432;2023-02-28T09:06:35;4.68;;;3.30;;
13171;SDS011;6651;53.200;10.432;2023-02-28T09:09:02;6.30;;;3.65;;
13171;SDS011;6651;53.200;10.432;2023-02-28T09:11:31;3.58;;;2.90;;
13171;SDS011;6651;53.200;10.432;2023-02-28T09:13:57;5.43;;;3.13;;
13171;SDS011;6651;53.200;10.432;2023-02-28T09:16:25;7.30;;;3.00;;
13171;SDS011;6651;53.200;10.432;2023-02-28T09:18:51;3.97;;;3.10;;
13171;SDS011;6651;53.200;10.432;2023-02-28T09:21:18;3.75;;;3.05;;
13171;SDS011;6651;53.200;10.432;2023-02-28T09:23:44;4.57;;;3.00;;
13171;SDS011;6651;53.200;10.432;2023-02-28T09:26:18;4.35;;;3.03;;
13171;SDS011;6651;53.200;10.432;2023-02-28T09:28:44;3.35;;;2.60;;
13171;SDS011;6651;53.200;10.432;2023-02-28T09:31:14;4.53;;;3.00;;
13171;SDS011;6651;53.200;10.432;2023-02-28T09:33:41;4.18;;;3.15;;
13171;SDS011;6651;53.200;10.432;2023-02-28T09:36:07;3.67;;;2.85;;
13171;SDS011;6651;53.200;10.432;2023-02-28T09:38:33;2.90;;;2.45;;
13171;SDS011;6651;53.200;10.432;2023-02-28T09:41:01;4.57;;;3.00;;
13171;SDS011;6651;53.200;10.432;2023-02-28T09:43:30;4.78;;;3.03;;
13171;SDS011;6651;53.200;10.432;2023-02-28T09:46:00;2.70;;;2.30;;
13171;SDS011;6651;53.200;10.432;2023-02-28T09:48:29;3.70;;;2.10;;
13171;SDS011;6651;53.200;10.432;2023-02-28T09:51:02;4.88;;;2.15;;
13171;SDS011;6651;53.200;10.432;2023-02-28T09:53:30;3.22;;;2.20;;
13171;SDS011;6651;53.200;10.432;2023-02-28T09:55:59;3.22;;;2.28;;
13171;SDS011;6651;53.200;10.432;2023-02-28T09:58:45;3.00;;;2.30;;
13171;SDS011;6651;53.200;10.432;2023-02-28T10:01:18;2.28;;;1.80;;
13171;SDS011;6651;53.200;10.432;2023-02-28T10:03:47;3.30;;;2.03;;
13171;SDS011;6651;53.200;10.432;2023-02-28T10:06:22;3.33;;;2.03;;
13171;SDS011;6651;53.200;10.432;2023-02-28T10:11:17;1.33;;;1.17;;
13171;SDS011;6651;53.200;10.432;2023-02-28T10:19:02;2.25;;;1.65;;
13171;SDS011;6651;53.200;10.432;2023-02-28T10:21:31;2.47;;;1.73;;
13171;SDS011;6651;53.200;10.432;2023-02-28T10:24:03;2.78;;;1.73;;
13171;SDS011;6651;53.200;10.432;2023-02-28T10:26:31;2.33;;;1.60;;
13171;SDS011;6651;53.200;10.432;2023-02-28T10:28:57;1.88;;;1.70;;
13171;SDS011;6651;53.200;10.432;2023-02-28T10:31:23;2.65;;;1.70;;
13171;SDS011;6651;53.200;10.432;2023-02-28T10:33:49;1.75;;;1.58;;
13171;SDS011;6651;53.200;10.432;2023-02-28T10:36:17;2.20;;;1.90;;
13171;SDS011;6651;53.200;10.432;2023-02-28T10:38:44;1.92;;;1.80;;
13171;SDS011;6651;53.200;10.432;2023-02-28T10:41:26;2.10;;;1.80;;
13171;SDS011;6651;53.200;10.432;2023-02-28T10:44:11;2.20;;;1.83;;
13171;SDS011;6651;53.200;10.432;2023-02-28T10:46:39;1.70;;;1.60;;
13171;SDS011;6651;53.200;10.432;2023-02-28T10:49:06;1.70;;;1.60;;
13171;SDS011;6651;53.200;10.432;2023-02-28T10:51:39;1.50;;;1.40;;
13171;SDS011;6651;53.200;10.432;2023-02-28T10:54:05;2.50;;;1.73;;
13171;SDS011;6651;53.200;10.432;2023-02-28T10:56:40;2.15;;;1.50;;
13171;SDS011;6651;53.200;10.432;2023-02-28T11:01:48;2.63;;;1.50;;
13171;SDS011;6651;53.200;10.432;2023-02-28T11:07:20;2.00;;;1.60;;
13171;SDS011;6651;53.200;10.432;2023-02-28T11:09:51;1.88;;;1.30;;
13171;SDS011;6651;53.200;10.432;2023-02-28T11:12:22;1.73;;;1.60;;
13171;SDS011;6651;53.200;10.432;2023-02-28T11:14:53;1.65;;;1.40;;
13171;SDS011;6651;53.200;10.432;2023-02-28T11:17:22;1.60;;;1.20;;
13171;SDS011;6651;53.200;10.432;2023-02-28T11:19:50;1.98;;;1.48;;
13171;SDS011;6651;53.200;10.432;2023-02-28T11:22:27;2.17;;;1.40;;
13171;SDS011;6651;53.200;10.432;2023-02-28T11:24:54;1.38;;;1.27;;
13171;SDS011;6651;53.200;10.432;2023-02-28T11:27:24;1.90;;;1.40;;
13171;SDS011;6651;53.200;10.432;2023-02-28T11:29:50;2.58;;;1.48;;
13171;SDS011;6651;53.200;10.432;2023-02-28T11:32:18;1.77;;;1.40;;
13171;SDS011;6651;53.200;10.432;2023-02-28T11:34:45;1.75;;;1.40;;
13171;SDS011;6651;53.200;10.432;2023-02-28T11:37:13;1.73;;;1.10;;
13171;SDS011;6651;53.200;10.432;2023-02-28T11:39:40;1.42;;;1.02;;
13171;SDS011;6651;53.200;10.432;2023-02-28T11:44:43;1.63;;;1.20;;
13171;SDS011;6651;53.200;10.432;2023-02-28T11:47:20;4.18;;;1.30;;
13171;SDS011;6651;53.200;10.432;2023-02-28T11:52:40;1.63;;;1.30;;
13171;SDS011;6651;53.200;10.432;2023-02-28T11:55:31;1.38;;;1.25;;
13171;SDS011;6651;53.200;10.432;2023-02-28T12:11:00;1.17;;;1.08;;
13171;SDS011;6651;53.200;10.432;2023-02-28T12:13:33;1.75;;;1.27;;
13171;SDS011;6651;53.200;10.432;2023-02-28T12:19:15;1.17;;;1.08;;
13171;SDS011;6651;53.200;10.432;2023-02-28T12:21:24;2.67;;;1.30;;
13171;SDS011;6651;53.200;10.432;2023-02-28T12:26:23;2.50;;;1.30;;
13171;SDS011;6651;53.200;10.432;2023-02-28T12:28:53;1.75;;;1.30;;
13171;SDS011;6651;53.200;10.432;2023-02-28T12:31:21;1.35;;;1.02;;
13171;SDS011;6651;53.200;10.432;2023-02-28T12:34:10;1.58;;;1.30;;
13171;SDS011;6651;53.200;10.432;2023-02-28T12:36:37;2.35;;;1.23;;
13171;SDS011;6651;53.200;10.432;2023-02-28T12:39:46;2.08;;;1.42;;
13171;SDS011;6651;53.200;10.432;2023-02-28T12:42:03;2.92;;;1.30;;
13171;SDS011;6651;53.200;10.432;2023-02-28T12:44:34;1.50;;;1.20;;
13171;SDS011;6651;53.200;10.432;2023-02-28T12:47:04;2.53;;;1.48;;
13171;SDS011;6651;53.200;10.432;2023-02-28T12:49:33;1.30;;;1.20;;
13171;SDS011;6651;53.200;10.432;2023-02-28T12:52:00;1.70;;;1.35;;
13171;SDS011;6651;53.200;10.432;2023-02-28T12:54:31;1.63;;;1.40;;
13171;SDS011;6651;53.200;10.432;2023-02-28T12:57:07;1.70;;;1.30;;
13171;SDS011;6651;53.200;10.432;2023-02-28T12:59:40;2.67;;;1.60;;
13171;SDS011;6651;53.200;10.432;2023-02-28T13:09:53;3.15;;;1.52;;
13171;SDS011;6651;53.200;10.432;2023-02-28T13:12:20;1.58;;;1.40;;
13171;SDS011;6651;53.200;10.432;2023-02-28T13:14:47;1.65;;;1.50;;
13171;SDS011;6651;53.200;10.432;2023-02-28T13:17:18;2.10;;;1.48;;
13171;SDS011;6651;53.200;10.432;2023-02-28T13:22:20;4.10;;;1.67;;
13171;SDS011;6651;53.200;10.432;2023-02-28T13:25:02;1.38;;;1.27;;
13171;SDS011;6651;53.200;10.432;2023-02-28T13:27:35;2.53;;;1.20;;
13171;SDS011;6651;53.200;10.432;2023-02-28T13:32:54;2.17;;;1.38;;
13171;SDS011;6651;53.200;10.432;2023-02-28T13:35:35;1.52;;;1.42;;
13171;SDS011;6651;53.200;10.432;2023-02-28T13:40:46;3.40;;;1.60;;
13171;SDS011;6651;53.200;10.432;2023-02-28T13:43:12;1.75;;;1.33;;
13171;SDS011;6651;53.200;10.432;2023-02-28T13:45:53;2.28;;;1.50;;
13171;SDS011;6651;53.200;10.432;2023-02-28T13:48:28;2.15;;;1.50;;
13171;SDS011;6651;53.200;10.432;2023-02-28T13:50:55;1.80;;;1.33;;
13171;SDS011;6651;53.200;10.432;2023-02-28T13:53:34;1.40;;;1.30;;
13171;SDS011;6651;53.200;10.432;2023-02-28T13:56:10;2.30;;;1.50;;
13171;SDS011;6651;53.200;10.432;2023-02-28T14:01:35;2.38;;;1.50;;
13171;SDS011;6651;53.200;10.432;2023-02-28T14:06:34;2.63;;;1.40;;
13171;SDS011;6651;53.200;10.432;2023-02-28T14:09:02;1.60;;;1.50;;
13171;SDS011;6651;53.200;10.432;2023-02-28T14:11:33;3.42;;;1.60;;
13171;SDS011;6651;53.200;10.432;2023-02-28T14:14:00;2.75;;;1.48;;
13171;SDS011;6651;53.200;10.432;2023-02-28T14:19:26;1.92;;;1.50;;
13171;SDS011;6651;53.200;10.432;2023-02-28T14:24:41;1.40;;;1.25;;
13171;SDS011;6651;53.200;10.432;2023-02-28T14:30:04;3.40;;;1.73;;
13171;SDS011;6651;53.200;10.432;2023-02-28T14:37:38;1.55;;;1.30;;
13171;SDS011;6651;53.200;10.432;2023-02-28T14:40:12;2.88;;;1.40;;
13171;SDS011;6651;53.200;10.432;2023-02-28T14:42:45;2.58;;;1.55;;
13171;SDS011;6651;53.200;10.432;2023-02-28T14:45:21;3.13;;;1.70;;
13171;SDS011;6651;53.200;10.432;2023-02-28T14:47:47;1.55;;;1.30;;
13171;SDS011;6651;53.200;10.432;2023-02-28T14:50:18;3.05;;;1.50;;
13171;SDS011;6651;53.200;10.432;2023-02-28T14:52:45;1.50;;;1.40;;
13171;SDS011;6651;53.200;10.432;2023-02-28T14:55:12;4.30;;;2.45;;
13171;SDS011;6651;53.200;10.432;2023-02-28T14:57:41;2.78;;;1.63;;
13171;SDS011;6651;53.200;10.432;2023-02-28T15:02:41;2.03;;;1.30;;
13171;SDS011;6651;53.200;10.432;2023-02-28T15:07:45;1.52;;;1.42;;
13171;SDS011;6651;53.200;10.432;2023-02-28T15:10:17;4.18;;;3.50;;
13171;SDS011;6651;53.200;10.432;2023-02-28T15:12:49;2.75;;;2.33;;
13171;SDS011;6651;53.200;10.432;2023-02-28T15:15:16;2.13;;;1.90;;
13171;SDS011;6651;53.200;10.432;2023-02-28T15:17:46;1.98;;;1.55;;
13171;SDS011;6651;53.200;10.432;2023-02-28T15:20:12;2.53;;;1.60;;
13171;SDS011;6651;53.200;10.432;2023-02-28T15:22:39;3.00;;;1.60;;
13171;SDS011;6651;53.200;10.432;2023-02-28T15:25:05;3.80;;;2.33;;
13171;SDS011;6651;53.200;10.432;2023-02-28T15:27:33;3.88;;;2.70;;
13171;SDS011;6651;53.200;10.432;2023-02-28T15:30:04;2.03;;;1.83;;
13171;SDS011;6651;53.200;10.432;2023-02-28T15:35:16;6.05;;;4.18;;
13171;SDS011;6651;53.200;10.432;2023-02-28T15:37:47;1.70;;;1.60;;
13171;SDS011;6651;53.200;10.432;2023-02-28T15:40:27;2.83;;;1.63;;
13171;SDS011;6651;53.200;10.432;2023-02-28T15:43:05;2.90;;;1.63;;
13171;SDS011;6651;53.200;10.432;2023-02-28T15:45:35;1.80;;;1.63;;
13171;SDS011;6651;53.200;10.432;2023-02-28T15:48:04;2.22;;;1.90;;
13171;SDS011;6651;53.200;10.432;2023-02-28T15:50:30;3.42;;;2.00;;
13171;SDS011;6651;53.200;10.432;2023-02-28T15:52:56;2.35;;;1.77;;
13171;SDS011;6651;53.200;10.432;2023-02-28T15:55:23;2.15;;;1.67;;
13171;SDS011;6651;53.200;10.432;2023-02-28T15:57:50;2.10;;;1.63;;
13171;SDS011;6651;53.200;10.432;2023-02-28T16:00:21;2.17;;;1.80;;
13171;SDS011;6651;53.200;10.432;2023-02-28T16:02:48;2.05;;;1.70;;
13171;SDS011;6651;53.200;10.432;2023-02-28T16:07:41;3.22;;;1.98;;
13171;SDS011;6651;53.200;10.432;2023-02-28T16:10:09;2.78;;;1.60;;
13171;SDS011;6651;53.200;10.432;2023-02-28T16:12:36;3.53;;;1.60;;
13171;SDS011;6651;53.200;10.432;2023-02-28T16:15:06;2.47;;;1.65;;
13171;SDS011;6651;53.200;10.432;2023-02-28T16:17:34;2.08;;;1.73;;
13171;SDS011;6651;53.200;10.432;2023-02-28T16:20:01;2.08;;;1.70;;
13171;SDS011;6651;53.200;10.432;2023-02-28T16:22:28;2.50;;;1.70;;
13171;SDS011;6651;53.200;10.432;2023-02-28T16:24:54;2.38;;;1.65;;
13171;SDS011;6651;53.200;10.432;2023-02-28T16:27:29;3.30;;;1.70;;
13171;SDS011;6651;53.200;10.432;2023-02-28T16:29:56;2.38;;;1.80;;
13171;SDS011;6651;53.200;10.432;2023-02-28T16:32:22;3.72;;;2.33;;
13171;SDS011;6651;53.200;10.432;2023-02-28T16:34:48;4.10;;;2.60;;
13171;SDS011;6651;53.200;10.432;2023-02-28T16:37:15;5.53;;;3.60;;
13171;SDS011;6651;53.200;10.432;2023-02-28T16:39:42;6.50;;;3.33;;
13171;SDS011;6651;53.200;10.432;2023-02-28T16:42:14;7.15;;;3.30;;
13171;SDS011;6651;53.200;10.432;2023-02-28T16:44:41;3.60;;;3.08;;
13171;SDS011;6651;53.200;10.432;2023-02-28T16:47:08;6.95;;;4.78;;
13171;SDS011;6651;53.200;10.432;2023-02-28T16:49:38;6.50;;;4.78;;
13171;SDS011;6651;53.200;10.432;2023-02-28T16:52:07;6.68;;;4.65;;
13171;SDS011;6651;53.200;10.432;2023-02-28T16:54:33;7.45;;;4.63;;
13171;SDS011;6651;53.200;10.432;2023-02-28T16:56:59;6.47;;;4.68;;
13171;SDS011;6651;53.200;10.432;2023-02-28T16:59:26;6.35;;;4.55;;
13171;SDS011;6651;53.200;10.432;2023-02-28T17:01:52;5.03;;;3.85;;